Terminal Aerodrome Forecast
Issued by NWS

Home | Current Version | Previous Version | Text Only | Print | Product List | Glossary On
Versions: 1 2 3 4 5 6 7 8 9 10 11 12
000
FTUS43 KLSX 281720
TAFUIN
TAF
KUIN 281720Z 2818/2918 17012KT P6SM SCT050 BKN150
     FM290100 17009KT P6SM BKN120
     FM290600 18009KT P6SM VCTS SCT050CB BKN120
     FM291200 18008KT P6SM VCSH BKN040 OVC080=

USA.gov is the U.S. government's official web portal to all federal, state and local government web resources and services.